sensor_id;sensor_type;location;lat;lon;timestamp;pressure;altitude;pressure_sealevel;temperature;humidity
63954;BME280;50128;52.094;5.232;2022-12-18T00:01:00;102742.0;;;-2.65;97.8
63954;BME280;50128;52.094;5.232;2022-12-18T00:02:36;102740.00000000001;;;-2.58;98.05
63954;BME280;50128;52.094;5.232;2022-12-18T00:05:59;102734.99999999999;;;-2.7;98.48
63954;BME280;50128;52.094;5.232;2022-12-18T00:07:36;102729.0;;;-2.61;97.89
63954;BME280;50128;52.094;5.232;2022-12-18T00:09:12;102726.0;;;-2.65;98.06
63954;BME280;50128;52.094;5.232;2022-12-18T00:12:24;102724.0;;;-2.53;97.63
63954;BME280;50128;52.094;5.232;2022-12-18T00:14:00;102722.0;;;-2.66;97.26
63954;BME280;50128;52.094;5.232;2022-12-18T00:15:37;102711.99999999999;;;-2.67;97.59
63954;BME280;50128;52.094;5.232;2022-12-18T00:17:15;102709.99999999999;;;-2.68;97.48
63954;BME280;50128;52.094;5.232;2022-12-18T00:20:35;102707.0;;;-2.71;97.7
63954;BME280;50128;52.094;5.232;2022-12-18T00:22:12;102709.99999999999;;;-3.06;98.06
63954;BME280;50128;52.094;5.232;2022-12-18T00:23:49;102711.99999999999;;;-2.83;97.76
63954;BME280;50128;52.094;5.232;2022-12-18T00:27:03;102714.00000000001;;;-2.8;97.27
63954;BME280;50128;52.094;5.232;2022-12-18T00:28:39;102717.0;;;-2.74;97.39
63954;BME280;50128;52.094;5.232;2022-12-18T00:30:15;102720.0;;;-2.89;97.36
63954;BME280;50128;52.094;5.232;2022-12-18T00:31:52;102717.0;;;-2.92;97.49
63954;BME280;50128;52.094;5.232;2022-12-18T00:35:06;102716.00000000001;;;-2.94;97.59
63954;BME280;50128;52.094;5.232;2022-12-18T00:36:43;102709.99999999999;;;-3.05;98.12
63954;BME280;50128;52.094;5.232;2022-12-18T00:38:19;102713.00000000001;;;-2.95;98.01
63954;BME280;50128;52.094;5.232;2022-12-18T00:41:32;102704.0;;;-2.88;97.93
63954;BME280;50128;52.094;5.232;2022-12-18T00:43:08;102708.99999999999;;;-2.88;98.09
63954;BME280;50128;52.094;5.232;2022-12-18T00:44:45;102706.0;;;-2.93;98.12
63954;BME280;50128;52.094;5.232;2022-12-18T00:47:57;102705.0;;;-3.02;98.52
63954;BME280;50128;52.094;5.232;2022-12-18T00:49:33;102706.0;;;-2.88;98.67
63954;BME280;50128;52.094;5.232;2022-12-18T00:51:09;102704.0;;;-2.69;97.77
63954;BME280;50128;52.094;5.232;2022-12-18T00:52:45;102704.0;;;-2.79;97.18
63954;BME280;50128;52.094;5.232;2022-12-18T00:55:59;102706.0;;;-2.85;97.55
63954;BME280;50128;52.094;5.232;2022-12-18T00:57:35;102703.0;;;-2.92;97.7
63954;BME280;50128;52.094;5.232;2022-12-18T01:00:48;102704.0;;;-2.98;97.98
63954;BME280;50128;52.094;5.232;2022-12-18T01:02:24;102703.0;;;-2.78;97.34
63954;BME280;50128;52.094;5.232;2022-12-18T01:04:01;102703.0;;;-2.85;97.45
63954;BME280;50128;52.094;5.232;2022-12-18T01:05:39;102704.0;;;-3.04;97.38
63954;BME280;50128;52.094;5.232;2022-12-18T01:08:51;102714.00000000001;;;-2.95;97.51
63954;BME280;50128;52.094;5.232;2022-12-18T01:10:28;102715.00000000001;;;-3.01;97.43
63954;BME280;50128;52.094;5.232;2022-12-18T01:12:05;102716.00000000001;;;-3.0;97.51
63954;BME280;50128;52.094;5.232;2022-12-18T01:13:41;102715.00000000001;;;-2.99;97.71
63954;BME280;50128;52.094;5.232;2022-12-18T01:16:55;102716.00000000001;;;-2.96;97.66
63954;BME280;50128;52.094;5.232;2022-12-18T01:18:31;102708.99999999999;;;-2.92;97.87
63954;BME280;50128;52.094;5.232;2022-12-18T01:20:10;102711.99999999999;;;-3.08;98.16
63954;BME280;50128;52.094;5.232;2022-12-18T01:23:23;102709.99999999999;;;-3.0;97.86
63954;BME280;50128;52.094;5.232;2022-12-18T01:25:04;102717.0;;;-2.96;97.65
63954;BME280;50128;52.094;5.232;2022-12-18T01:26:40;102721.0;;;-2.93;97.71
63954;BME280;50128;52.094;5.232;2022-12-18T01:29:53;102719.0;;;-2.87;97.57
63954;BME280;50128;52.094;5.232;2022-12-18T01:31:32;102713.00000000001;;;-2.94;97.52
63954;BME280;50128;52.094;5.232;2022-12-18T01:33:09;102715.00000000001;;;-2.89;97.71
63954;BME280;50128;52.094;5.232;2022-12-18T01:34:45;102717.0;;;-3.0;97.71
63954;BME280;50128;52.094;5.232;2022-12-18T01:38:01;102722.0;;;-3.04;97.97
63954;BME280;50128;52.094;5.232;2022-12-18T01:39:37;102730.0;;;-2.98;97.8
63954;BME280;50128;52.094;5.232;2022-12-18T01:41:19;102731.0;;;-3.05;97.99
63954;BME280;50128;52.094;5.232;2022-12-18T01:45:02;102731.0;;;-2.98;97.59
63954;BME280;50128;52.094;5.232;2022-12-18T01:46:57;102728.0;;;-3.06;97.43
63954;BME280;50128;52.094;5.232;2022-12-18T01:48:33;102722.0;;;-3.16;97.73
63954;BME280;50128;52.094;5.232;2022-12-18T01:50:13;102722.0;;;-3.09;97.88
63954;BME280;50128;52.094;5.232;2022-12-18T01:51:50;102727.0;;;-3.11;97.62
63954;BME280;50128;52.094;5.232;2022-12-18T01:53:27;102730.0;;;-3.04;97.59
63954;BME280;50128;52.094;5.232;2022-12-18T01:56:42;102731.0;;;-3.16;97.68
63954;BME280;50128;52.094;5.232;2022-12-18T01:58:19;102733.99999999999;;;-3.15;97.93
63954;BME280;50128;52.094;5.232;2022-12-18T02:00:01;102733.99999999999;;;-3.18;98.01
63954;BME280;50128;52.094;5.232;2022-12-18T02:03:20;102736.99999999999;;;-3.23;98.37
63954;BME280;50128;52.094;5.232;2022-12-18T02:04:56;102733.0;;;-3.13;97.87
63954;BME280;50128;52.094;5.232;2022-12-18T02:06:34;102727.0;;;-3.23;97.36
63954;BME280;50128;52.094;5.232;2022-12-18T02:08:19;102731.0;;;-3.33;97.67
63954;BME280;50128;52.094;5.232;2022-12-18T02:11:52;102733.99999999999;;;-3.19;96.94
63954;BME280;50128;52.094;5.232;2022-12-18T02:13:36;102743.0;;;-3.23;96.87
63954;BME280;50128;52.094;5.232;2022-12-18T02:15:24;102742.0;;;-3.3;97.05
63954;BME280;50128;52.094;5.232;2022-12-18T02:17:07;102742.0;;;-3.36;96.79
63954;BME280;50128;52.094;5.232;2022-12-18T02:18:50;102743.0;;;-3.37;96.86
63954;BME280;50128;52.094;5.232;2022-12-18T02:22:24;102743.0;;;-3.5;97.13
63954;BME280;50128;52.094;5.232;2022-12-18T02:24:18;102745.0;;;-3.51;97.04
63954;BME280;50128;52.094;5.232;2022-12-18T02:26:06;102746.0;;;-3.55;97.0
63954;BME280;50128;52.094;5.232;2022-12-18T02:27:48;102747.0;;;-3.45;96.6
63954;BME280;50128;52.094;5.232;2022-12-18T02:29:30;102740.00000000001;;;-3.52;96.35
63954;BME280;50128;52.094;5.232;2022-12-18T02:31:11;102739.00000000001;;;-3.74;96.79
63954;BME280;50128;52.094;5.232;2022-12-18T02:34:32;102739.00000000001;;;-3.81;96.9
63954;BME280;50128;52.094;5.232;2022-12-18T02:36:14;102734.99999999999;;;-3.87;97.01
63954;BME280;50128;52.094;5.232;2022-12-18T02:37:53;102739.00000000001;;;-3.79;96.89
63954;BME280;50128;52.094;5.232;2022-12-18T02:39:30;102734.99999999999;;;-3.77;96.79
63954;BME280;50128;52.094;5.232;2022-12-18T02:42:46;102733.99999999999;;;-3.66;96.14
63954;BME280;50128;52.094;5.232;2022-12-18T02:44:22;102740.00000000001;;;-3.86;96.93
63954;BME280;50128;52.094;5.232;2022-12-18T02:46:00;102727.0;;;-3.7;96.25
63954;BME280;50128;52.094;5.232;2022-12-18T02:47:56;102722.0;;;-3.77;96.92
63954;BME280;50128;52.094;5.232;2022-12-18T02:51:23;102719.0;;;-3.85;96.67
63954;BME280;50128;52.094;5.232;2022-12-18T02:54:59;102719.0;;;-3.75;96.18
63954;BME280;50128;52.094;5.232;2022-12-18T02:56:44;102715.00000000001;;;-3.75;96.64
63954;BME280;50128;52.094;5.232;2022-12-18T02:58:30;102716.00000000001;;;-3.67;96.05
63954;BME280;50128;52.094;5.232;2022-12-18T03:01:55;102711.99999999999;;;-3.82;96.23
63954;BME280;50128;52.094;5.232;2022-12-18T03:03:38;102714.00000000001;;;-3.89;96.66
63954;BME280;50128;52.094;5.232;2022-12-18T03:05:19;102708.99999999999;;;-3.88;96.21
63954;BME280;50128;52.094;5.232;2022-12-18T03:07:02;102708.0;;;-3.99;96.41
63954;BME280;50128;52.094;5.232;2022-12-18T03:10:25;102698.0;;;-3.96;96.47
63954;BME280;50128;52.094;5.232;2022-12-18T03:12:12;102702.0;;;-3.91;96.07
63954;BME280;50128;52.094;5.232;2022-12-18T03:13:54;102700.0;;;-3.96;95.83
63954;BME280;50128;52.094;5.232;2022-12-18T03:15:35;102698.0;;;-4.0;96.13
63954;BME280;50128;52.094;5.232;2022-12-18T03:17:16;102692.0;;;-4.03;96.15
63954;BME280;50128;52.094;5.232;2022-12-18T03:20:38;102690.00000000001;;;-4.04;96.3
63954;BME280;50128;52.094;5.232;2022-12-18T03:22:20;102683.99999999999;;;-4.17;96.47
63954;BME280;50128;52.094;5.232;2022-12-18T03:23:59;102677.0;;;-3.94;95.79
63954;BME280;50128;52.094;5.232;2022-12-18T03:25:40;102673.0;;;-3.9;95.2
63954;BME280;50128;52.094;5.232;2022-12-18T03:29:03;102670.0;;;-3.94;95.09
63954;BME280;50128;52.094;5.232;2022-12-18T03:30:44;102672.0;;;-3.96;94.9
63954;BME280;50128;52.094;5.232;2022-12-18T03:32:25;102670.0;;;-4.08;94.99
63954;BME280;50128;52.094;5.232;2022-12-18T03:34:09;102669.0;;;-4.06;94.88
63954;BME280;50128;52.094;5.232;2022-12-18T03:37:26;102666.00000000001;;;-3.94;94.18
63954;BME280;50128;52.094;5.232;2022-12-18T03:39:02;102668.0;;;-4.09;94.35
63954;BME280;50128;52.094;5.232;2022-12-18T03:40:53;102671.0;;;-4.08;94.46
63954;BME280;50128;52.094;5.232;2022-12-18T03:42:42;102665.00000000001;;;-4.23;94.63
63954;BME280;50128;52.094;5.232;2022-12-18T03:46:12;102664.00000000001;;;-4.22;95.1
63954;BME280;50128;52.094;5.232;2022-12-18T03:47:59;102661.99999999999;;;-4.29;95.27
63954;BME280;50128;52.094;5.232;2022-12-18T03:49:40;102666.00000000001;;;-4.21;94.86
63954;BME280;50128;52.094;5.232;2022-12-18T03:51:26;102669.0;;;-4.13;94.59
63954;BME280;50128;52.094;5.232;2022-12-18T03:53:17;102670.0;;;-4.12;94.13
63954;BME280;50128;52.094;5.232;2022-12-18T03:54:55;102664.00000000001;;;-4.23;93.86
63954;BME280;50128;52.094;5.232;2022-12-18T03:58:19;102664.00000000001;;;-4.25;93.66
63954;BME280;50128;52.094;5.232;2022-12-18T03:59:59;102659.99999999999;;;-4.32;93.57
63954;BME280;50128;52.094;5.232;2022-12-18T04:01:40;102653.0;;;-4.3;93.18
63954;BME280;50128;52.094;5.232;2022-12-18T04:03:20;102649.0;;;-4.24;92.76
63954;BME280;50128;52.094;5.232;2022-12-18T04:06:38;102642.0;;;-4.37;92.62
63954;BME280;50128;52.094;5.232;2022-12-18T04:08:16;102642.0;;;-4.28;92.69
63954;BME280;50128;52.094;5.232;2022-12-18T04:09:55;102642.0;;;-4.34;92.6
63954;BME280;50128;52.094;5.232;2022-12-18T04:11:32;102634.99999999999;;;-4.32;92.37
63954;BME280;50128;52.094;5.232;2022-12-18T04:14:45;102628.0;;;-4.38;92.36
63954;BME280;50128;52.094;5.232;2022-12-18T04:16:21;102623.0;;;-4.4;92.23
63954;BME280;50128;52.094;5.232;2022-12-18T04:17:57;102619.0;;;-4.45;92.35
63954;BME280;50128;52.094;5.232;2022-12-18T04:21:10;102620.0;;;-4.38;92.49
63954;BME280;50128;52.094;5.232;2022-12-18T04:22:47;102619.0;;;-4.42;92.25
63954;BME280;50128;52.094;5.232;2022-12-18T04:24:24;102623.0;;;-4.61;93.33
63954;BME280;50128;52.094;5.232;2022-12-18T04:27:36;102629.0;;;-4.48;93.29
63954;BME280;50128;52.094;5.232;2022-12-18T04:29:12;102625.0;;;-4.48;92.91
63954;BME280;50128;52.094;5.232;2022-12-18T04:30:49;102623.0;;;-4.47;92.77
63954;BME280;50128;52.094;5.232;2022-12-18T04:32:24;102623.0;;;-4.37;92.22
63954;BME280;50128;52.094;5.232;2022-12-18T04:35:37;102630.0;;;-4.53;91.93
63954;BME280;50128;52.094;5.232;2022-12-18T04:37:13;102631.0;;;-4.69;92.49
63954;BME280;50128;52.094;5.232;2022-12-18T04:38:49;102641.00000000001;;;-4.78;92.74
63954;BME280;50128;52.094;5.232;2022-12-18T04:42:02;102644.0;;;-4.85;93.16
63954;BME280;50128;52.094;5.232;2022-12-18T04:43:38;102647.0;;;-4.66;93.09
63954;BME280;50128;52.094;5.232;2022-12-18T04:45:14;102653.0;;;-4.5;92.75
63954;BME280;50128;52.094;5.232;2022-12-18T04:48:26;102656.0;;;-4.46;92.61
63954;BME280;50128;52.094;5.232;2022-12-18T04:50:03;102657.0;;;-4.37;92.08
63954;BME280;50128;52.094;5.232;2022-12-18T04:51:40;102658.99999999999;;;-4.53;92.55
63954;BME280;50128;52.094;5.232;2022-12-18T04:54:52;102659.99999999999;;;-4.6;92.44
63954;BME280;50128;52.094;5.232;2022-12-18T04:56:30;102659.99999999999;;;-4.6;92.59
63954;BME280;50128;52.094;5.232;2022-12-18T04:58:07;102661.99999999999;;;-4.51;92.49
63954;BME280;50128;52.094;5.232;2022-12-18T04:59:43;102667.0;;;-4.61;92.37
63954;BME280;50128;52.094;5.232;2022-12-18T05:02:55;102673.0;;;-4.54;91.87
63954;BME280;50128;52.094;5.232;2022-12-18T05:04:31;102677.0;;;-4.71;92.02
63954;BME280;50128;52.094;5.232;2022-12-18T05:06:08;102675.0;;;-4.53;92.19
63954;BME280;50128;52.094;5.232;2022-12-18T05:09:21;102677.0;;;-4.71;92.48
63954;BME280;50128;52.094;5.232;2022-12-18T05:11:00;102675.0;;;-4.5;92.07
63954;BME280;50128;52.094;5.232;2022-12-18T05:12:37;102674.0;;;-4.62;92.04
63954;BME280;50128;52.094;5.232;2022-12-18T05:15:51;102678.0;;;-4.65;92.2
63954;BME280;50128;52.094;5.232;2022-12-18T05:19:04;102678.0;;;-4.56;92.08
63954;BME280;50128;52.094;5.232;2022-12-18T05:20:40;102678.0;;;-4.46;91.8
63954;BME280;50128;52.094;5.232;2022-12-18T05:23:53;102683.99999999999;;;-4.41;91.5
63954;BME280;50128;52.094;5.232;2022-12-18T05:25:29;102686.99999999999;;;-4.34;91.4
63954;BME280;50128;52.094;5.232;2022-12-18T05:27:06;102688.00000000001;;;-4.52;91.44
63954;BME280;50128;52.094;5.232;2022-12-18T05:30:18;102684.99999999999;;;-4.51;91.76
63954;BME280;50128;52.094;5.232;2022-12-18T05:31:54;102694.0;;;-4.42;91.18
63954;BME280;50128;52.094;5.232;2022-12-18T05:33:33;102698.0;;;-4.23;90.66
63954;BME280;50128;52.094;5.232;2022-12-18T05:36:48;102694.0;;;-4.35;90.74
63954;BME280;50128;52.094;5.232;2022-12-18T05:38:25;102692.0;;;-4.41;90.79
63954;BME280;50128;52.094;5.232;2022-12-18T05:40:02;102682.0;;;-4.46;90.88
63954;BME280;50128;52.094;5.232;2022-12-18T05:41:40;102688.00000000001;;;-4.5;90.95
63954;BME280;50128;52.094;5.232;2022-12-18T05:44:53;102678.0;;;-4.48;91.2
63954;BME280;50128;52.094;5.232;2022-12-18T05:46:30;102671.0;;;-4.47;90.94
63954;BME280;50128;52.094;5.232;2022-12-18T05:48:07;102667.0;;;-4.46;90.5
63954;BME280;50128;52.094;5.232;2022-12-18T05:51:21;102670.0;;;-4.46;90.86
63954;BME280;50128;52.094;5.232;2022-12-18T05:52:57;102670.0;;;-4.48;90.71
63954;BME280;50128;52.094;5.232;2022-12-18T05:54:33;102672.0;;;-4.58;90.69
63954;BME280;50128;52.094;5.232;2022-12-18T05:56:12;102672.0;;;-4.55;90.83
63954;BME280;50128;52.094;5.232;2022-12-18T05:59:26;102664.00000000001;;;-4.54;90.6
63954;BME280;50128;52.094;5.232;2022-12-18T06:01:08;102659.99999999999;;;-4.57;90.42
63954;BME280;50128;52.094;5.232;2022-12-18T06:02:46;102655.0;;;-4.55;90.47
63954;BME280;50128;52.094;5.232;2022-12-18T06:05:59;102652.0;;;-4.44;90.15
63954;BME280;50128;52.094;5.232;2022-12-18T06:07:35;102650.0;;;-4.53;90.34
63954;BME280;50128;52.094;5.232;2022-12-18T06:09:11;102649.0;;;-4.49;90.38
63954;BME280;50128;52.094;5.232;2022-12-18T06:10:50;102642.0;;;-4.59;90.32
63954;BME280;50128;52.094;5.232;2022-12-18T06:14:05;102641.00000000001;;;-4.61;90.56
63954;BME280;50128;52.094;5.232;2022-12-18T06:15:41;102633.0;;;-4.63;90.55
63954;BME280;50128;52.094;5.232;2022-12-18T06:17:17;102633.99999999999;;;-4.69;90.68
63954;BME280;50128;52.094;5.232;2022-12-18T06:20:32;102627.0;;;-4.68;90.64
63954;BME280;50128;52.094;5.232;2022-12-18T06:22:08;102633.0;;;-4.69;90.74
63954;BME280;50128;52.094;5.232;2022-12-18T06:25:20;102632.0;;;-4.61;90.39
63954;BME280;50128;52.094;5.232;2022-12-18T06:26:56;102634.99999999999;;;-4.65;90.61
63954;BME280;50128;52.094;5.232;2022-12-18T06:28:33;102638.00000000001;;;-4.52;90.4
63954;BME280;50128;52.094;5.232;2022-12-18T06:30:10;102639.00000000001;;;-4.45;90.08
63954;BME280;50128;52.094;5.232;2022-12-18T06:31:46;102643.0;;;-4.53;90.59
63954;BME280;50128;52.094;5.232;2022-12-18T06:35:03;102642.0;;;-4.54;90.38
63954;BME280;50128;52.094;5.232;2022-12-18T06:36:40;102631.0;;;-4.52;90.11
63954;BME280;50128;52.094;5.232;2022-12-18T06:38:16;102627.0;;;-4.48;90.1
63954;BME280;50128;52.094;5.232;2022-12-18T06:41:28;102626.0;;;-4.54;90.06
63954;BME280;50128;52.094;5.232;2022-12-18T06:43:05;102624.0;;;-4.55;90.12
63954;BME280;50128;52.094;5.232;2022-12-18T06:44:42;102621.0;;;-4.57;90.43
63954;BME280;50128;52.094;5.232;2022-12-18T06:46:18;102617.0;;;-4.41;90.06
63954;BME280;50128;52.094;5.232;2022-12-18T06:49:31;102611.99999999999;;;-4.47;90.1
63954;BME280;50128;52.094;5.232;2022-12-18T06:51:08;102605.0;;;-4.53;90.24
63954;BME280;50128;52.094;5.232;2022-12-18T06:52:43;102599.0;;;-4.57;90.5
63954;BME280;50128;52.094;5.232;2022-12-18T06:56:00;102595.0;;;-4.52;90.22
63954;BME280;50128;52.094;5.232;2022-12-18T06:57:37;102598.0;;;-4.44;90.25
63954;BME280;50128;52.094;5.232;2022-12-18T06:59:14;102592.0;;;-4.43;90.32
63954;BME280;50128;52.094;5.232;2022-12-18T07:02:27;102593.0;;;-4.38;90.26
63954;BME280;50128;52.094;5.232;2022-12-18T07:04:03;102593.0;;;-4.45;90.14
63954;BME280;50128;52.094;5.232;2022-12-18T07:05:39;102591.00000000001;;;-4.33;89.89
63954;BME280;50128;52.094;5.232;2022-12-18T07:07:16;102594.0;;;-4.29;89.81
63954;BME280;50128;52.094;5.232;2022-12-18T07:10:31;102591.00000000001;;;-4.19;89.6
63954;BME280;50128;52.094;5.232;2022-12-18T07:12:07;102581.0;;;-4.35;89.53
63954;BME280;50128;52.094;5.232;2022-12-18T07:13:43;102577.0;;;-4.26;89.64
63954;BME280;50128;52.094;5.232;2022-12-18T07:16:56;102579.0;;;-4.29;89.39
63954;BME280;50128;52.094;5.232;2022-12-18T07:18:33;102575.0;;;-4.36;89.73
63954;BME280;50128;52.094;5.232;2022-12-18T07:20:10;102575.0;;;-4.35;90.0
63954;BME280;50128;52.094;5.232;2022-12-18T07:23:22;102570.0;;;-4.35;90.15
63954;BME280;50128;52.094;5.232;2022-12-18T07:24:58;102568.0;;;-4.38;90.27
63954;BME280;50128;52.094;5.232;2022-12-18T07:26:35;102565.00000000001;;;-4.31;90.17
63954;BME280;50128;52.094;5.232;2022-12-18T07:28:11;102576.0;;;-4.27;90.08
63954;BME280;50128;52.094;5.232;2022-12-18T07:31:24;102574.0;;;-4.17;89.74
63954;BME280;50128;52.094;5.232;2022-12-18T07:33:00;102568.0;;;-4.19;89.63
63954;BME280;50128;52.094;5.232;2022-12-18T07:34:37;102566.00000000001;;;-4.28;89.73
63954;BME280;50128;52.094;5.232;2022-12-18T07:37:50;102552.0;;;-4.43;90.11
63954;BME280;50128;52.094;5.232;2022-12-18T07:39:26;102546.0;;;-4.27;90.12
63954;BME280;50128;52.094;5.232;2022-12-18T07:41:03;102542.0;;;-4.35;90.11
63954;BME280;50128;52.094;5.232;2022-12-18T07:44:17;102542.0;;;-4.26;90.01
63954;BME280;50128;52.094;5.232;2022-12-18T07:45:55;102542.0;;;-4.24;90.05
63954;BME280;50128;52.094;5.232;2022-12-18T07:47:34;102540.00000000001;;;-4.24;90.11
63954;BME280;50128;52.094;5.232;2022-12-18T07:52:22;102534.99999999999;;;-4.18;89.74
63954;BME280;50128;52.094;5.232;2022-12-18T07:53:59;102533.0;;;-4.16;89.89
63954;BME280;50128;52.094;5.232;2022-12-18T07:55:35;102529.0;;;-3.95;89.43
63954;BME280;50128;52.094;5.232;2022-12-18T07:58:48;102524.0;;;-4.07;89.34
63954;BME280;50128;52.094;5.232;2022-12-18T08:00:24;102529.0;;;-4.18;89.81
63954;BME280;50128;52.094;5.232;2022-12-18T08:02:00;102528.0;;;-3.99;89.66
63954;BME280;50128;52.094;5.232;2022-12-18T08:05:14;102521.0;;;-3.97;89.43
63954;BME280;50128;52.094;5.232;2022-12-18T08:06:51;102515.00000000001;;;-3.96;89.59
63954;BME280;50128;52.094;5.232;2022-12-18T08:08:27;102513.00000000001;;;-3.91;89.54
63954;BME280;50128;52.094;5.232;2022-12-18T08:10:05;102508.0;;;-3.94;89.63
63954;BME280;50128;52.094;5.232;2022-12-18T08:13:19;102515.00000000001;;;-3.89;89.78
63954;BME280;50128;52.094;5.232;2022-12-18T08:14:54;102521.0;;;-3.87;89.89
63954;BME280;50128;52.094;5.232;2022-12-18T08:16:31;102526.0;;;-3.84;89.87
63954;BME280;50128;52.094;5.232;2022-12-18T08:19:43;102531.0;;;-3.79;89.76
63954;BME280;50128;52.094;5.232;2022-12-18T08:21:21;102538.00000000001;;;-3.7;89.5
63954;BME280;50128;52.094;5.232;2022-12-18T08:22:58;102540.00000000001;;;-3.57;89.32
63954;BME280;50128;52.094;5.232;2022-12-18T08:26:11;102541.00000000001;;;-3.55;89.15
63954;BME280;50128;52.094;5.232;2022-12-18T08:27:47;102547.0;;;-3.55;88.96
63954;BME280;50128;52.094;5.232;2022-12-18T08:29:23;102547.0;;;-3.4;88.85
63954;BME280;50128;52.094;5.232;2022-12-18T08:31:00;102542.0;;;-3.37;88.83
63954;BME280;50128;52.094;5.232;2022-12-18T08:34:11;102542.0;;;-3.4;88.49
63954;BME280;50128;52.094;5.232;2022-12-18T08:35:48;102542.0;;;-3.42;88.61
63954;BME280;50128;52.094;5.232;2022-12-18T08:37:24;102547.0;;;-3.24;88.32
63954;BME280;50128;52.094;5.232;2022-12-18T08:40:36;102551.0;;;-3.35;88.3
63954;BME280;50128;52.094;5.232;2022-12-18T08:42:12;102550.0;;;-3.47;88.72
63954;BME280;50128;52.094;5.232;2022-12-18T08:43:48;102543.0;;;-3.41;88.48
63954;BME280;50128;52.094;5.232;2022-12-18T08:47:01;102533.0;;;-3.33;88.1
63954;BME280;50128;52.094;5.232;2022-12-18T08:48:37;102532.0;;;-3.31;88.24
63954;BME280;50128;52.094;5.232;2022-12-18T08:50:14;102525.0;;;-3.37;88.51
63954;BME280;50128;52.094;5.232;2022-12-18T08:51:54;102526.0;;;-3.24;88.26
63954;BME280;50128;52.094;5.232;2022-12-18T08:55:08;102528.0;;;-3.16;88.02
63954;BME280;50128;52.094;5.232;2022-12-18T08:56:44;102525.0;;;-3.28;88.23
63954;BME280;50128;52.094;5.232;2022-12-18T08:58:21;102525.0;;;-3.17;87.9
63954;BME280;50128;52.094;5.232;2022-12-18T09:01:33;102528.0;;;-3.14;88.0
63954;BME280;50128;52.094;5.232;2022-12-18T09:03:11;102522.0;;;-3.22;88.15
63954;BME280;50128;52.094;5.232;2022-12-18T09:04:48;102516.00000000001;;;-3.22;88.16
63954;BME280;50128;52.094;5.232;2022-12-18T09:08:00;102519.0;;;-3.11;88.12
63954;BME280;50128;52.094;5.232;2022-12-18T09:09:36;102517.0;;;-3.05;88.08
63954;BME280;50128;52.094;5.232;2022-12-18T09:11:15;102518.0;;;-3.17;88.44
63954;BME280;50128;52.094;5.232;2022-12-18T09:12:54;102531.0;;;-3.19;88.23
63954;BME280;50128;52.094;5.232;2022-12-18T09:16:06;102529.0;;;-3.07;88.21
63954;BME280;50128;52.094;5.232;2022-12-18T09:17:43;102539.00000000001;;;-3.08;88.32
63954;BME280;50128;52.094;5.232;2022-12-18T09:19:19;102530.0;;;-2.91;87.72
63954;BME280;50128;52.094;5.232;2022-12-18T09:22:31;102531.0;;;-2.92;87.7
63954;BME280;50128;52.094;5.232;2022-12-18T09:24:11;102528.0;;;-3.01;87.97
63954;BME280;50128;52.094;5.232;2022-12-18T09:25:49;102533.99999999999;;;-2.87;87.9
63954;BME280;50128;52.094;5.232;2022-12-18T09:27:25;102533.0;;;-2.81;87.5
63954;BME280;50128;52.094;5.232;2022-12-18T09:30:39;102538.00000000001;;;-2.82;87.32
63954;BME280;50128;52.094;5.232;2022-12-18T09:32:16;102529.0;;;-2.67;87.1
63954;BME280;50128;52.094;5.232;2022-12-18T09:33:54;102517.0;;;-2.78;86.9
63954;BME280;50128;52.094;5.232;2022-12-18T09:37:07;102513.00000000001;;;-2.69;87.04
63954;BME280;50128;52.094;5.232;2022-12-18T09:38:43;102518.0;;;-2.55;86.7
63954;BME280;50128;52.094;5.232;2022-12-18T09:40:22;102508.0;;;-2.53;86.44
63954;BME280;50128;52.094;5.232;2022-12-18T09:42:01;102503.0;;;-2.52;86.49
63954;BME280;50128;52.094;5.232;2022-12-18T09:45:21;102499.0;;;-2.52;86.57
63954;BME280;50128;52.094;5.232;2022-12-18T09:47:08;102499.0;;;-2.5;86.09
63954;BME280;50128;52.094;5.232;2022-12-18T09:48:48;102504.0;;;-2.46;86.35
63954;BME280;50128;52.094;5.232;2022-12-18T09:50:30;102504.0;;;-2.4;86.11
63954;BME280;50128;52.094;5.232;2022-12-18T09:53:53;102499.0;;;-2.38;86.08
63954;BME280;50128;52.094;5.232;2022-12-18T09:55:35;102493.0;;;-2.33;86.12
63954;BME280;50128;52.094;5.232;2022-12-18T09:57:15;102502.0;;;-2.37;86.09
63954;BME280;50128;52.094;5.232;2022-12-18T09:58:57;102501.0;;;-2.18;85.48
63954;BME280;50128;52.094;5.232;2022-12-18T10:02:14;102490.00000000001;;;-2.25;86.22
63954;BME280;50128;52.094;5.232;2022-12-18T10:03:52;102483.0;;;-2.18;85.81
63954;BME280;50128;52.094;5.232;2022-12-18T10:05:36;102482.0;;;-2.16;85.42
63954;BME280;50128;52.094;5.232;2022-12-18T10:07:29;102488.00000000001;;;-2.09;85.14
63954;BME280;50128;52.094;5.232;2022-12-18T10:11:01;102480.0;;;-2.21;85.02
63954;BME280;50128;52.094;5.232;2022-12-18T10:12:50;102474.0;;;-2.17;85.1
63954;BME280;50128;52.094;5.232;2022-12-18T10:14:36;102480.0;;;-2.03;84.93
63954;BME280;50128;52.094;5.232;2022-12-18T10:16:22;102483.99999999999;;;-2.17;85.05
63954;BME280;50128;52.094;5.232;2022-12-18T10:18:12;102490.00000000001;;;-2.02;85.07
63954;BME280;50128;52.094;5.232;2022-12-18T10:20:00;102488.00000000001;;;-1.94;84.65
63954;BME280;50128;52.094;5.232;2022-12-18T10:23:28;102488.00000000001;;;-1.86;84.58
63954;BME280;50128;52.094;5.232;2022-12-18T10:25:17;102480.0;;;-1.67;84.06
63954;BME280;50128;52.094;5.232;2022-12-18T10:26:59;102481.0;;;-1.69;83.58
63954;BME280;50128;52.094;5.232;2022-12-18T10:28:45;102481.0;;;-1.77;83.92
63954;BME280;50128;52.094;5.232;2022-12-18T10:30:24;102483.0;;;-1.68;83.51
63954;BME280;50128;52.094;5.232;2022-12-18T10:33:38;102476.0;;;-1.65;83.41
63954;BME280;50128;52.094;5.232;2022-12-18T10:35:18;102468.0;;;-1.6;83.68
63954;BME280;50128;52.094;5.232;2022-12-18T10:36:56;102469.0;;;-1.46;83.16
63954;BME280;50128;52.094;5.232;2022-12-18T10:38:32;102473.0;;;-1.5;82.51
63954;BME280;50128;52.094;5.232;2022-12-18T10:41:49;102467.0;;;-1.38;82.57
63954;BME280;50128;52.094;5.232;2022-12-18T10:43:27;102459.99999999999;;;-1.36;82.46
63954;BME280;50128;52.094;5.232;2022-12-18T10:45:13;102450.0;;;-1.39;82.03
63954;BME280;50128;52.094;5.232;2022-12-18T10:48:31;102441.00000000001;;;-1.64;82.47